Atlanta, Georgia
Traffic Map
Current Weather Conditions
Atlanta, Georgia
Clear
Clear
24°
Feels Like: 24°
Wind Chill: 24° Ceiling: Unl
Heat Index: 24° Visibility: 10mi
Dew Point: Wind: 12mph
Humidity: 36% Direction: 300° (WNW)
Pressure: 30.01in Gusts: 0mph
Raw Report DataKATL 252052Z 30010KT 10SM CLR 24/08 A3001 RMK AO2 SLP158 T02390078 56012
Traffic Incident Summary
Active as of:
Severity:
Category:
InformationThere was an issue retrieving the traffic information for this location. Please try a different location or try again shortly.
Advertisements
Track Severe Weather on mobile